Portada
METAR-TAF:

METAR-TAF

Aeroports :

Havre-Saint-Pierre, Quebec, Canadà

latitud: 50-17N, longitud: 063-37W, altitud: 33 m

Observació

L'informe es va fer fa 41 minuts, a les 22:00 UTC
Vent 15 kt del Nord/Nord-Est amb ràfegues de 21 kt
Temperatura -5°C
Humitat 86%
Pressió 996 hPa
Visibilitat: 6.4 km
Cel cobert a una alçada de 2800 ft
neu

METAR: CYGV 282200Z AUTO 03015G21KT 4SM -SN OVC028 M05/M07 A2941 RMK SLP963

Hora: 17:41 (22:41 UTC)

Pronòstic

L'informe es va fer fa 49 minuts, a les 21:52 UTC
Pronòstic vàlid del 28 a les 21 UTC al 29 a les 08 UTC
Vent 12 kt del Nord/Nord-Est amb ràfegues de 22 kt
Visibilitat: 4.8 km
Cel cobert a una alçada de 3000 ft
neu
Temporalment
l' 28 a les 21 UTC al 29 a les 02 UTC
Cel ennuvolat a una alçada de 1500 ft
Cel cobert a una alçada de 3000 ft
neu

TAF: CYGV 282152Z 2821/2908 03012G22KT 3SM -SN OVC030 TEMPO 2821/2902 11/2SM -SN BKN015 OVC030 RMK FCST BASED ON AUTO OBS. NXT FCST BY 290200Z

Observacions i pronòstics meteorològics de més de 4000 aeroports (METAR i TAF).

Les estacions disponibles són els punts grocs i vermells al mapa.

Posi el ratolí al punt desitjat per veure el nom de l'estació.

Feu clic per veure les observacions i els pronòstics meteorològics.

Per canviar el mapa: feu clic els botons verds amb una creu de color negre per apropar; al botó verd amb un guió per allunyar la imatge; o en les fletxes verdes per a mapes adjacents.


METAR-TAF: